createdAt,value
2023-01-25T00:01:06.484Z,28.55
2023-01-25T00:03:33.329Z,27.95
2023-01-25T00:06:01.624Z,30.45
2023-01-25T00:08:28.775Z,26.77
2023-01-25T00:10:57.654Z,30.77
2023-01-25T00:13:25.670Z,25.88
2023-01-25T00:15:52.441Z,28.30
2023-01-25T00:18:19.322Z,27.20
2023-01-25T00:20:46.313Z,22.70
2023-01-25T00:23:13.159Z,27.02
2023-01-25T00:25:39.962Z,27.77
2023-01-25T00:28:06.707Z,33.42
2023-01-25T00:30:33.574Z,28.70
2023-01-25T00:33:16.852Z,29.92
2023-01-25T00:35:48.772Z,28.35
2023-01-25T00:38:35.131Z,19.58
2023-01-25T00:41:01.946Z,28.55
2023-01-25T00:43:28.711Z,25.40
2023-01-25T00:46:01.579Z,30.10
2023-01-25T00:50:55.046Z,26.67
2023-01-25T00:53:21.882Z,21.30
2023-01-25T00:55:53.132Z,24.70
2023-01-25T00:58:19.884Z,24.10
2023-01-25T01:00:46.650Z,23.13
2023-01-25T01:03:13.514Z,25.45
2023-01-25T01:05:40.269Z,21.92
2023-01-25T01:08:07.221Z,22.92
2023-01-25T01:10:33.976Z,23.15
2023-01-25T01:13:00.774Z,19.17
2023-01-25T01:15:27.547Z,17.77
2023-01-25T01:17:54.389Z,22.85
2023-01-25T01:20:21.245Z,21.20
2023-01-25T01:22:48.083Z,24.10
2023-01-25T01:25:14.909Z,23.10
2023-01-25T01:27:41.691Z,21.05
2023-01-25T01:30:09.547Z,23.10
2023-01-25T01:32:36.553Z,22.88
2023-01-25T01:35:03.596Z,23.48
2023-01-25T01:37:30.422Z,25.10
2023-01-25T01:39:57.216Z,21.55
2023-01-25T01:42:24.047Z,24.30
2023-01-25T01:44:53.698Z,24.27
2023-01-25T01:47:31.664Z,20.00
2023-01-25T01:50:05.750Z,24.23
2023-01-25T01:52:37.227Z,24.20
2023-01-25T01:55:18.165Z,22.88
2023-01-25T01:57:48.970Z,24.63
2023-01-25T02:00:27.494Z,25.77
2023-01-25T02:02:55.653Z,25.15
2023-01-25T02:05:42.769Z,24.15
2023-01-25T02:08:13.828Z,23.58
2023-01-25T02:10:42.747Z,23.20
2023-01-25T02:13:10.064Z,24.42
2023-01-25T02:15:45.169Z,23.40
2023-01-25T02:18:12.870Z,26.23
2023-01-25T02:20:49.416Z,24.35
2023-01-25T02:23:50.997Z,20.42
2023-01-25T02:26:19.494Z,21.17
2023-01-25T02:28:54.209Z,22.02
2023-01-25T02:31:21.329Z,21.35
2023-01-25T02:33:48.272Z,25.00
2023-01-25T02:36:30.505Z,22.80
2023-01-25T02:39:02.558Z,24.97
2023-01-25T02:41:36.108Z,17.43
2023-01-25T02:44:29.047Z,23.05
2023-01-25T02:46:55.958Z,22.65
2023-01-25T02:49:22.843Z,23.23
2023-01-25T02:51:57.233Z,20.65
2023-01-25T02:54:26.736Z,21.58
2023-01-25T02:56:53.846Z,22.23
2023-01-25T02:59:20.885Z,23.33
2023-01-25T03:01:48.208Z,19.90
2023-01-25T03:04:15.024Z,21.02
2023-01-25T03:06:42.186Z,24.15
2023-01-25T03:09:11.002Z,20.02
2023-01-25T03:11:38.044Z,20.98
2023-01-25T03:14:04.994Z,17.38
2023-01-25T03:16:32.481Z,21.05
2023-01-25T03:18:59.331Z,21.50
2023-01-25T03:21:26.399Z,23.10
2023-01-25T03:24:01.621Z,21.70
2023-01-25T03:26:29.369Z,19.75
2023-01-25T03:28:56.646Z,21.65
2023-01-25T03:31:24.681Z,22.63
2023-01-25T03:33:51.723Z,21.73
2023-01-25T03:36:18.774Z,22.38
2023-01-25T03:38:45.593Z,25.13
2023-01-25T03:41:13.834Z,20.95
2023-01-25T03:43:40.741Z,23.38
2023-01-25T03:46:07.785Z,25.85
2023-01-25T03:48:34.757Z,23.30
2023-01-25T03:51:01.844Z,24.50
2023-01-25T03:53:30.723Z,21.52
2023-01-25T03:56:09.917Z,22.25
2023-01-25T03:58:38.844Z,21.65
2023-01-25T04:01:07.671Z,21.50
2023-01-25T04:03:35.055Z,20.42
2023-01-25T04:06:02.272Z,22.10
2023-01-25T04:08:30.072Z,24.63
2023-01-25T04:11:08.600Z,24.73
2023-01-25T04:13:37.236Z,26.17
2023-01-25T04:16:06.574Z,21.00
2023-01-25T04:18:33.467Z,23.88
2023-01-25T04:21:00.358Z,23.65
2023-01-25T04:23:27.291Z,25.48
2023-01-25T04:26:05.149Z,24.42
2023-01-25T04:28:33.524Z,26.27
2023-01-25T04:31:00.761Z,27.55
2023-01-25T04:33:27.926Z,21.00
2023-01-25T04:35:54.687Z,23.13
2023-01-25T04:38:21.640Z,26.05
2023-01-25T04:40:48.432Z,25.98
2023-01-25T04:43:18.939Z,26.85
2023-01-25T04:45:46.695Z,22.40
2023-01-25T04:48:14.359Z,26.42
2023-01-25T04:50:42.739Z,21.95
2023-01-25T04:53:11.610Z,27.45
2023-01-25T04:55:38.652Z,22.40
2023-01-25T04:58:05.725Z,24.73
2023-01-25T05:00:32.787Z,24.00
2023-01-25T05:02:59.597Z,27.67
2023-01-25T05:05:26.778Z,24.48
2023-01-25T05:07:53.581Z,26.60
2023-01-25T05:10:20.638Z,21.55
2023-01-25T05:12:47.593Z,22.05
2023-01-25T05:15:14.794Z,21.63
2023-01-25T05:17:41.590Z,25.58
2023-01-25T05:20:09.438Z,22.60
2023-01-25T05:22:36.259Z,23.08
2023-01-25T05:25:04.142Z,23.95
2023-01-25T05:27:30.916Z,23.95
2023-01-25T05:29:57.902Z,23.63
2023-01-25T05:32:24.936Z,25.38
2023-01-25T05:34:51.993Z,28.23
2023-01-25T05:37:20.691Z,28.90
2023-01-25T05:39:47.677Z,25.75
2023-01-25T05:42:17.208Z,22.60
2023-01-25T05:44:47.110Z,21.20
2023-01-25T05:47:17.047Z,25.20
2023-01-25T05:49:44.334Z,21.80
2023-01-25T05:52:15.990Z,26.27
2023-01-25T05:54:42.872Z,24.58
2023-01-25T05:57:09.732Z,24.05
2023-01-25T05:59:36.741Z,27.25
2023-01-25T06:02:03.519Z,24.50
2023-01-25T06:04:30.500Z,23.48
2023-01-25T06:06:57.403Z,27.88
2023-01-25T06:09:24.440Z,29.73
2023-01-25T06:11:51.248Z,30.45
2023-01-25T06:14:18.215Z,34.45
2023-01-25T06:16:45.016Z,29.83
2023-01-25T06:19:14.133Z,28.58
2023-01-25T06:21:41.010Z,21.63
2023-01-25T06:24:08.249Z,25.20
2023-01-25T06:26:35.058Z,20.75
2023-01-25T06:29:01.826Z,23.77
2023-01-25T06:31:28.672Z,24.60
2023-01-25T06:33:55.510Z,22.98
2023-01-25T06:36:23.246Z,23.88
2023-01-25T06:38:51.844Z,28.08
2023-01-25T06:41:19.759Z,28.17
2023-01-25T06:43:47.946Z,24.38
2023-01-25T06:46:14.949Z,21.75
2023-01-25T06:48:43.000Z,23.60
2023-01-25T06:51:12.757Z,25.10
2023-01-25T06:53:43.227Z,25.67
2023-01-25T06:56:15.986Z,22.60
2023-01-25T06:58:42.964Z,24.48
2023-01-25T07:01:13.148Z,25.67
2023-01-25T07:03:40.756Z,22.42
2023-01-25T07:06:10.980Z,25.90
2023-01-25T07:08:39.337Z,25.10
2023-01-25T07:11:12.098Z,25.77
2023-01-25T07:13:40.496Z,28.50
2023-01-25T07:16:20.590Z,26.38
2023-01-25T07:18:48.175Z,29.98
2023-01-25T07:21:22.348Z,27.30
2023-01-25T07:23:52.420Z,26.33
2023-01-25T07:26:26.378Z,24.02
2023-01-25T07:28:54.883Z,27.65
2023-01-25T07:31:22.920Z,26.13
2023-01-25T07:33:54.061Z,23.42
2023-01-25T07:36:21.677Z,22.73
2023-01-25T07:38:54.757Z,26.90
2023-01-25T07:41:22.432Z,28.05
2023-01-25T07:43:49.392Z,26.38
2023-01-25T07:46:17.475Z,28.70
2023-01-25T07:48:52.337Z,25.95
2023-01-25T07:51:26.931Z,29.05
2023-01-25T07:54:03.791Z,29.05
2023-01-25T07:56:37.639Z,26.48
2023-01-25T07:59:04.993Z,24.52
2023-01-25T08:01:34.120Z,26.08
2023-01-25T08:04:02.822Z,30.05
2023-01-25T08:06:36.173Z,30.83
2023-01-25T08:09:17.414Z,28.67
2023-01-25T08:11:44.287Z,30.10
2023-01-25T08:14:12.616Z,32.53
2023-01-25T08:16:39.490Z,29.48
2023-01-25T08:19:10.444Z,32.55
2023-01-25T08:21:37.795Z,29.00
2023-01-25T08:24:06.927Z,32.38
2023-01-25T08:26:37.211Z,36.50
2023-01-25T08:29:07.634Z,32.30
2023-01-25T08:31:36.331Z,36.58
2023-01-25T08:34:05.966Z,35.20
2023-01-25T08:36:33.790Z,28.45
2023-01-25T08:39:04.984Z,29.42
2023-01-25T08:41:33.742Z,27.45
2023-01-25T08:44:00.876Z,28.15
2023-01-25T08:46:32.027Z,24.92
2023-01-25T08:49:00.528Z,28.88
2023-01-25T08:51:28.470Z,29.52
2023-01-25T08:53:55.317Z,25.73
2023-01-25T08:56:24.251Z,22.92
2023-01-25T08:58:53.152Z,25.88
2023-01-25T09:01:20.640Z,23.90
2023-01-25T09:03:50.442Z,25.33
2023-01-25T09:06:21.533Z,27.98
2023-01-25T09:08:48.734Z,29.33
2023-01-25T09:11:21.551Z,29.33
2023-01-25T09:13:49.204Z,33.40
2023-01-25T09:16:29.034Z,27.67
2023-01-25T09:18:58.343Z,28.58
2023-01-25T09:21:25.453Z,28.30
2023-01-25T09:24:10.013Z,34.38
2023-01-25T09:26:45.905Z,30.50
2023-01-25T09:29:14.708Z,32.72
2023-01-25T09:31:43.856Z,35.03
2023-01-25T09:34:14.451Z,40.47
2023-01-25T09:36:41.325Z,36.17
2023-01-25T09:39:10.099Z,34.38
2023-01-25T09:42:19.847Z,36.88
2023-01-25T09:44:50.191Z,36.30
2023-01-25T09:47:44.343Z,32.03
2023-01-25T09:50:54.320Z,38.65
2023-01-25T09:53:31.299Z,38.05
2023-01-25T09:56:26.799Z,33.83
2023-01-25T09:59:04.879Z,34.17
2023-01-25T10:01:57.780Z,31.08
2023-01-25T10:04:36.048Z,21.58
2023-01-25T10:07:42.935Z,29.35
2023-01-25T10:10:39.036Z,33.80
2023-01-25T10:13:12.791Z,34.78
2023-01-25T10:15:47.694Z,28.77
2023-01-25T10:18:39.802Z,35.63
2023-01-25T10:21:46.489Z,33.20
2023-01-25T10:24:47.507Z,27.48
2023-01-25T10:28:15.528Z,27.50
2023-01-25T10:30:59.152Z,25.42
2023-01-25T10:33:28.523Z,25.58
2023-01-25T10:36:01.924Z,22.98
2023-01-25T10:38:46.949Z,23.83
2023-01-25T10:41:40.712Z,26.40
2023-01-25T10:44:24.641Z,27.15
2023-01-25T10:47:00.917Z,26.50
2023-01-25T10:49:45.511Z,34.20
2023-01-25T10:52:28.225Z,36.75
2023-01-25T10:55:23.410Z,27.48
2023-01-25T10:57:54.685Z,27.42
2023-01-25T11:00:42.239Z,38.58
2023-01-25T11:03:21.765Z,41.53
2023-01-25T11:05:57.161Z,31.23
2023-01-25T11:08:32.983Z,30.70
2023-01-25T11:11:00.832Z,22.23
2023-01-25T11:13:32.816Z,24.30
2023-01-25T11:16:05.789Z,26.00
2023-01-25T11:21:20.449Z,23.83
2023-01-25T11:24:07.219Z,26.67
2023-01-25T11:26:39.660Z,25.25
2023-01-25T11:29:24.834Z,22.27
2023-01-25T11:31:57.589Z,25.25
2023-01-25T11:34:30.144Z,28.73
2023-01-25T11:37:21.071Z,29.58
2023-01-25T11:40:16.970Z,29.48
2023-01-25T11:43:07.148Z,31.77
2023-01-25T11:46:10.689Z,41.75
2023-01-25T11:48:54.561Z,28.65
2023-01-25T11:51:58.843Z,32.28
2023-01-25T11:54:43.090Z,32.22
2023-01-25T11:57:33.402Z,31.20
2023-01-25T12:00:16.326Z,31.83
2023-01-25T12:03:00.659Z,38.17
2023-01-25T12:06:01.186Z,33.10
2023-01-25T12:08:47.417Z,35.83
2023-01-25T12:11:46.819Z,41.78
2023-01-25T12:14:38.289Z,37.55
2023-01-25T12:17:50.440Z,36.42
2023-01-25T12:20:42.484Z,36.63
2023-01-25T12:23:42.565Z,35.80
2023-01-25T12:26:57.219Z,33.90
2023-01-25T12:29:34.471Z,33.58
2023-01-25T12:32:12.942Z,30.38
2023-01-25T12:34:44.612Z,31.02
2023-01-25T12:37:24.767Z,35.65
2023-01-25T12:40:14.774Z,31.25
2023-01-25T12:42:48.639Z,34.10
2023-01-25T12:45:25.067Z,40.17
2023-01-25T12:48:17.168Z,39.38
2023-01-25T12:51:00.185Z,34.97
2023-01-25T12:53:36.356Z,33.08
2023-01-25T12:56:10.231Z,34.60
2023-01-25T12:58:55.346Z,30.63
2023-01-25T13:01:48.188Z,35.30
2023-01-25T13:04:46.141Z,32.95
2023-01-25T13:07:41.602Z,30.55
2023-01-25T13:10:24.230Z,33.35
2023-01-25T13:12:57.912Z,32.47
2023-01-25T13:15:42.027Z,32.13
2023-01-25T13:18:27.653Z,31.50
2023-01-25T13:20:58.152Z,33.00
2023-01-25T13:23:36.260Z,34.88
2023-01-25T13:26:21.378Z,32.90
2023-01-25T13:28:53.022Z,30.55
2023-01-25T13:31:51.094Z,32.08
2023-01-25T13:34:39.657Z,32.75
2023-01-25T13:37:42.444Z,38.63
2023-01-25T13:40:33.588Z,35.90
2023-01-25T13:43:06.717Z,32.08
2023-01-25T13:45:36.282Z,32.15
2023-01-25T13:48:09.267Z,34.42
2023-01-25T13:53:19.998Z,35.05
2023-01-25T13:55:55.888Z,33.65
2023-01-25T13:58:27.471Z,32.72
2023-01-25T14:00:59.785Z,35.05
2023-01-25T14:03:55.671Z,48.63
2023-01-25T14:06:40.797Z,39.03
2023-01-25T14:09:17.191Z,34.90
2023-01-25T14:11:55.626Z,40.40
2023-01-25T14:14:33.112Z,44.10
2023-01-25T14:17:09.484Z,47.20
2023-01-25T14:19:44.384Z,38.05
2023-01-25T14:22:21.944Z,34.38
2023-01-25T14:25:12.041Z,39.58
2023-01-25T14:27:57.326Z,36.95
2023-01-25T14:30:27.790Z,43.72
2023-01-25T14:32:59.992Z,37.25
2023-01-25T14:35:53.723Z,31.70
2023-01-25T14:38:23.601Z,55.35
2023-01-25T14:40:55.127Z,52.70
2023-01-25T14:43:23.131Z,47.50
2023-01-25T14:45:50.040Z,44.38
2023-01-25T14:48:41.179Z,49.75
2023-01-25T14:51:27.071Z,42.35
2023-01-25T14:54:03.764Z,52.70
2023-01-25T14:56:42.491Z,45.28
2023-01-25T14:59:27.377Z,41.75
2023-01-25T15:01:57.601Z,49.28
2023-01-25T15:04:24.774Z,42.55
2023-01-25T15:06:54.213Z,45.33
2023-01-25T15:09:44.489Z,51.78
2023-01-25T15:12:17.336Z,44.97
2023-01-25T15:14:50.559Z,42.25
2023-01-25T15:17:47.429Z,46.20
2023-01-25T15:20:37.067Z,49.50
2023-01-25T15:23:25.085Z,59.47
2023-01-25T15:25:59.028Z,48.35
2023-01-25T15:28:36.135Z,48.38
2023-01-25T15:31:04.688Z,41.97
2023-01-25T15:33:32.667Z,39.78
2023-01-25T15:35:59.442Z,39.00
2023-01-25T15:38:26.488Z,38.47
2023-01-25T15:40:53.320Z,38.22
2023-01-25T15:43:20.383Z,35.70
2023-01-25T15:45:51.351Z,39.20
2023-01-25T15:48:32.896Z,43.92
2023-01-25T15:51:00.220Z,36.70
2023-01-25T15:53:27.336Z,40.03
2023-01-25T15:56:04.779Z,41.15
2023-01-25T15:58:36.310Z,40.88
2023-01-25T16:01:03.985Z,49.47
2023-01-25T16:03:32.415Z,66.30
2023-01-25T16:06:03.583Z,49.33
2023-01-25T16:08:31.668Z,45.42
2023-01-25T16:10:58.492Z,53.35
2023-01-25T16:13:25.638Z,61.65
2023-01-25T16:15:55.167Z,45.63
2023-01-25T16:18:21.996Z,48.00
2023-01-25T16:20:48.966Z,47.65
2023-01-25T16:23:15.777Z,38.13
2023-01-25T16:25:44.528Z,47.65
2023-01-25T16:28:17.572Z,39.35
2023-01-25T16:30:45.122Z,42.40
2023-01-25T16:33:12.138Z,42.28
2023-01-25T16:35:38.959Z,36.05
2023-01-25T16:38:05.785Z,39.13
2023-01-25T16:40:39.549Z,37.97
2023-01-25T16:43:06.473Z,36.05
2023-01-25T16:45:33.284Z,34.17
2023-01-25T16:48:01.690Z,39.35
2023-01-25T16:50:28.479Z,36.25
2023-01-25T16:52:56.150Z,39.40
2023-01-25T16:55:23.001Z,38.75
2023-01-25T16:57:51.004Z,41.22
2023-01-25T17:00:18.530Z,39.00
2023-01-25T17:02:58.125Z,38.63
2023-01-25T17:05:33.575Z,39.38
2023-01-25T17:08:00.513Z,37.47
2023-01-25T17:10:28.777Z,40.25
2023-01-25T17:12:55.551Z,40.35
2023-01-25T17:15:22.322Z,38.72
2023-01-25T17:17:49.168Z,38.15
2023-01-25T17:20:16.465Z,42.80
2023-01-25T17:22:46.841Z,38.47
2023-01-25T17:25:13.740Z,42.67
2023-01-25T17:27:40.630Z,39.55
2023-01-25T17:30:09.081Z,34.78
2023-01-25T17:32:36.020Z,41.83
2023-01-25T17:35:03.302Z,41.47
2023-01-25T17:37:30.133Z,43.13
2023-01-25T17:39:56.888Z,44.08
2023-01-25T17:42:23.722Z,41.72
2023-01-25T17:44:50.590Z,35.40
2023-01-25T17:47:17.400Z,39.25
2023-01-25T17:49:44.231Z,39.65
2023-01-25T17:52:11.047Z,41.75
2023-01-25T17:54:37.825Z,36.70
2023-01-25T17:57:04.586Z,40.60
2023-01-25T17:59:31.391Z,37.90
2023-01-25T18:01:58.298Z,35.28
2023-01-25T18:04:25.401Z,42.78
2023-01-25T18:06:52.244Z,43.35
2023-01-25T18:09:19.299Z,54.92
2023-01-25T18:11:46.079Z,58.78
2023-01-25T18:14:18.276Z,52.38
2023-01-25T18:16:45.245Z,35.45
2023-01-25T18:19:12.650Z,32.67
2023-01-25T18:21:41.863Z,36.40
2023-01-25T18:24:14.726Z,35.17
2023-01-25T18:26:42.638Z,33.03
2023-01-25T18:29:09.559Z,37.75
2023-01-25T18:31:37.191Z,34.65
2023-01-25T18:34:04.506Z,35.25
2023-01-25T18:36:31.510Z,32.80
2023-01-25T18:38:59.890Z,35.00
2023-01-25T18:41:27.158Z,32.42
2023-01-25T18:43:54.010Z,33.05
2023-01-25T18:46:20.850Z,30.60
2023-01-25T18:48:47.696Z,28.30
2023-01-25T18:51:17.767Z,29.88
2023-01-25T18:53:47.354Z,37.80
2023-01-25T18:56:21.131Z,33.03
2023-01-25T18:58:50.113Z,39.45
2023-01-25T19:01:22.287Z,42.72
2023-01-25T19:03:50.651Z,38.97
2023-01-25T19:06:20.076Z,29.20
2023-01-25T19:08:53.061Z,31.95
2023-01-25T19:11:21.967Z,33.47
2023-01-25T19:13:49.970Z,29.77
2023-01-25T19:16:20.479Z,38.88
2023-01-25T19:18:51.945Z,83.75
2023-01-25T19:21:24.743Z,29.52
2023-01-25T19:23:53.166Z,36.28
2023-01-25T19:26:23.710Z,42.22
2023-01-25T19:28:50.890Z,34.72
2023-01-25T19:31:24.277Z,32.63
2023-01-25T19:34:01.378Z,40.60
2023-01-25T19:36:31.841Z,38.53
2023-01-25T19:38:59.087Z,42.90
2023-01-25T19:41:28.950Z,41.22
2023-01-25T19:44:01.088Z,35.70
2023-01-25T19:46:31.342Z,25.65
2023-01-25T19:49:00.305Z,29.80
2023-01-25T19:51:30.438Z,29.88
2023-01-25T19:54:10.380Z,30.88
2023-01-25T19:56:42.273Z,26.17
2023-01-25T19:59:24.633Z,26.83
2023-01-25T20:01:52.118Z,28.73
2023-01-25T20:04:23.520Z,34.22
2023-01-25T20:06:51.333Z,31.65
2023-01-25T20:09:20.118Z,31.90
2023-01-25T20:11:47.488Z,30.15
2023-01-25T20:14:14.900Z,28.02
2023-01-25T20:16:42.112Z,39.88
2023-01-25T20:19:12.325Z,34.30
2023-01-25T20:21:39.949Z,27.35
2023-01-25T20:24:08.632Z,28.70
2023-01-25T20:26:39.005Z,31.88
2023-01-25T20:29:07.748Z,40.38
2023-01-25T20:31:42.085Z,49.33
2023-01-25T20:34:21.353Z,92.40
2023-01-25T20:36:50.269Z,257.52
2023-01-25T20:39:20.534Z,240.65
2023-01-25T20:41:48.171Z,147.75
2023-01-25T20:44:17.912Z,299.13
2023-01-25T20:46:45.208Z,98.13
2023-01-25T20:49:17.721Z,150.07
2023-01-25T20:51:45.146Z,123.05
2023-01-25T20:54:12.157Z,64.90
2023-01-25T20:56:39.122Z,102.30
2023-01-25T20:59:06.149Z,56.20
2023-01-25T21:01:36.660Z,50.90
2023-01-25T21:04:06.267Z,68.05
2023-01-25T21:06:35.049Z,82.00
2023-01-25T21:09:02.874Z,59.15
2023-01-25T21:11:29.700Z,39.20
2023-01-25T21:13:56.963Z,38.58
2023-01-25T21:16:23.902Z,46.33
2023-01-25T21:19:01.304Z,40.20
2023-01-25T21:21:31.388Z,34.65
2023-01-25T21:24:02.263Z,40.92
2023-01-25T21:26:34.732Z,59.00
2023-01-25T21:29:03.131Z,32.80
2023-01-25T21:31:33.811Z,54.05
2023-01-25T21:34:01.965Z,53.20
2023-01-25T21:36:28.864Z,121.93
2023-01-25T21:38:56.343Z,78.97
2023-01-25T21:41:26.892Z,60.78
2023-01-25T21:44:14.130Z,68.78
2023-01-25T21:46:41.689Z,35.33
2023-01-25T21:49:30.032Z,35.95
2023-01-25T21:52:01.861Z,262.45
2023-01-25T21:54:37.923Z,83.60
2023-01-25T21:57:09.820Z,49.75
2023-01-25T21:59:38.031Z,33.80
2023-01-25T22:02:08.147Z,56.85
2023-01-25T22:04:36.056Z,35.97
2023-01-25T22:07:04.532Z,31.10
2023-01-25T22:09:31.359Z,30.52
2023-01-25T22:11:58.476Z,30.50
2023-01-25T22:14:25.375Z,31.88
2023-01-25T22:16:52.544Z,34.58
2023-01-25T22:19:19.449Z,49.08
2023-01-25T22:21:46.239Z,33.10
2023-01-25T22:24:13.404Z,31.98
2023-01-25T22:26:49.008Z,36.22
2023-01-25T22:29:16.049Z,37.35
2023-01-25T22:31:43.194Z,28.83
2023-01-25T22:34:10.919Z,28.42
2023-01-25T22:36:38.259Z,34.42
2023-01-25T22:39:05.163Z,30.38
2023-01-25T22:41:36.437Z,33.40
2023-01-25T22:44:03.375Z,33.53
2023-01-25T22:46:30.479Z,28.83
2023-01-25T22:48:58.262Z,37.00
2023-01-25T22:51:28.996Z,35.67
2023-01-25T22:53:57.789Z,36.28
2023-01-25T22:56:28.678Z,43.55
2023-01-25T22:58:55.774Z,32.03
2023-01-25T23:01:26.391Z,34.65
2023-01-25T23:03:53.764Z,32.63
2023-01-25T23:06:27.366Z,31.80
2023-01-25T23:08:59.899Z,29.65
2023-01-25T23:11:35.619Z,36.45
2023-01-25T23:14:25.696Z,31.38
2023-01-25T23:16:52.661Z,35.63
2023-01-25T23:19:19.483Z,31.13
2023-01-25T23:21:46.253Z,33.25
2023-01-25T23:24:13.277Z,28.48
2023-01-25T23:26:46.050Z,32.83
2023-01-25T23:31:40.228Z,32.22
2023-01-25T23:34:07.507Z,31.23
2023-01-25T23:36:38.682Z,35.97
2023-01-25T23:39:06.111Z,30.20
2023-01-25T23:41:33.657Z,32.22
2023-01-25T23:44:00.830Z,32.60
2023-01-25T23:46:28.258Z,30.63
2023-01-25T23:48:55.293Z,30.80
2023-01-25T23:51:22.179Z,30.30
2023-01-25T23:53:48.912Z,29.30
2023-01-25T23:56:21.570Z,29.50
2023-01-25T23:58:49.285Z,33.85
